sensor_id;sensor_type;location;lat;lon;timestamp;temperature;humidity
65040;HTU21D;51606;45.000;38.612;2022-11-15T04:35:56;0.82;80.20
65040;HTU21D;51606;45.000;38.612;2022-11-15T04:39:00;0.84;80.22
65040;HTU21D;51606;45.000;38.612;2022-11-15T04:41:44;0.86;80.25
65040;HTU21D;51606;45.000;38.612;2022-11-15T04:44:29;0.89;80.24
65040;HTU21D;51606;45.000;38.612;2022-11-15T04:47:13;0.92;80.23
65040;HTU21D;51606;45.000;38.612;2022-11-15T04:49:58;0.95;80.24
65040;HTU21D;51606;45.000;38.612;2022-11-15T04:52:48;1.01;80.24
65040;HTU21D;51606;45.000;38.612;2022-11-15T04:55:34;1.06;80.24
65040;HTU21D;51606;45.000;38.612;2022-11-15T04:58:18;1.10;80.20
65040;HTU21D;51606;45.000;38.612;2022-11-15T05:01:10;1.16;80.12
65040;HTU21D;51606;45.000;38.612;2022-11-15T05:03:56;1.22;80.11
65040;HTU21D;51606;45.000;38.612;2022-11-15T05:06:59;1.26;80.14
65040;HTU21D;51606;45.000;38.612;2022-11-15T05:09:44;1.31;80.07
65040;HTU21D;51606;45.000;38.612;2022-11-15T05:12:29;1.32;80.14
65040;HTU21D;51606;45.000;38.612;2022-11-15T05:15:14;1.35;80.17
65040;HTU21D;51606;45.000;38.612;2022-11-15T05:17:59;1.35;80.17
65040;HTU21D;51606;45.000;38.612;2022-11-15T05:20:44;1.38;80.07
65040;HTU21D;51606;45.000;38.612;2022-11-15T05:23:29;1.39;80.14
65040;HTU21D;51606;45.000;38.612;2022-11-15T05:26:15;1.38;80.28
65040;HTU21D;51606;45.000;38.612;2022-11-15T05:29:00;1.40;80.33
65040;HTU21D;51606;45.000;38.612;2022-11-15T05:31:44;1.45;80.35
65040;HTU21D;51606;45.000;38.612;2022-11-15T05:34:29;1.50;80.33
65040;HTU21D;51606;45.000;38.612;2022-11-15T05:37:15;1.55;80.31
65040;HTU21D;51606;45.000;38.612;2022-11-15T05:40:00;1.58;80.32
65040;HTU21D;51606;45.000;38.612;2022-11-15T05:42:45;1.68;80.27
65040;HTU21D;51606;45.000;38.612;2022-11-15T05:45:32;1.72;80.29
65040;HTU21D;51606;45.000;38.612;2022-11-15T05:48:18;1.79;80.25
65040;HTU21D;51606;45.000;38.612;2022-11-15T05:51:04;1.87;80.18
65040;HTU21D;51606;45.000;38.612;2022-11-15T05:53:51;1.95;80.14
65040;HTU21D;51606;45.000;38.612;2022-11-15T05:56:36;1.97;80.11
65040;HTU21D;51606;45.000;38.612;2022-11-15T05:59:20;1.98;80.17
65040;HTU21D;51606;45.000;38.612;2022-11-15T06:02:05;2.01;80.17
65040;HTU21D;51606;45.000;38.612;2022-11-15T06:04:50;2.10;80.20
65040;HTU21D;51606;45.000;38.612;2022-11-15T06:07:35;2.14;80.09
65040;HTU21D;51606;45.000;38.612;2022-11-15T06:10:19;2.19;80.15
65040;HTU21D;51606;45.000;38.612;2022-11-15T06:13:04;2.27;80.12
65040;HTU21D;51606;45.000;38.612;2022-11-15T06:15:49;2.29;80.07
65040;HTU21D;51606;45.000;38.612;2022-11-15T06:18:35;2.34;80.12
65040;HTU21D;51606;45.000;38.612;2022-11-15T06:21:19;2.40;80.12
65040;HTU21D;51606;45.000;38.612;2022-11-15T06:24:05;2.40;80.15
65040;HTU21D;51606;45.000;38.612;2022-11-15T06:26:50;2.43;80.22
65040;HTU21D;51606;45.000;38.612;2022-11-15T06:29:35;2.47;80.29
65040;HTU21D;51606;45.000;38.612;2022-11-15T06:32:20;2.47;80.38
65040;HTU21D;51606;45.000;38.612;2022-11-15T06:35:05;2.53;80.41
65040;HTU21D;51606;45.000;38.612;2022-11-15T06:37:50;2.61;80.36
65040;HTU21D;51606;45.000;38.612;2022-11-15T06:40:36;2.67;80.33
65040;HTU21D;51606;45.000;38.612;2022-11-15T06:43:21;2.76;80.27
65040;HTU21D;51606;45.000;38.612;2022-11-15T06:46:07;2.85;80.20
65040;HTU21D;51606;45.000;38.612;2022-11-15T06:48:53;2.95;80.15
65040;HTU21D;51606;45.000;38.612;2022-11-15T06:51:38;3.06;80.09
65040;HTU21D;51606;45.000;38.612;2022-11-15T06:54:23;3.18;80.04
65040;HTU21D;51606;45.000;38.612;2022-11-15T06:57:08;3.20;79.98
65040;HTU21D;51606;45.000;38.612;2022-11-15T06:59:53;3.24;80.17
65040;HTU21D;51606;45.000;38.612;2022-11-15T07:02:38;3.26;80.19
65040;HTU21D;51606;45.000;38.612;2022-11-15T07:05:23;3.29;80.29
65040;HTU21D;51606;45.000;38.612;2022-11-15T07:08:08;3.42;80.25
65040;HTU21D;51606;45.000;38.612;2022-11-15T07:10:54;3.48;80.14
65040;HTU21D;51606;45.000;38.612;2022-11-15T07:13:39;3.52;80.24
65040;HTU21D;51606;45.000;38.612;2022-11-15T07:16:23;3.58;80.29
65040;HTU21D;51606;45.000;38.612;2022-11-15T07:19:09;3.71;80.29
65040;HTU21D;51606;45.000;38.612;2022-11-15T07:21:54;3.84;79.98
65040;HTU21D;51606;45.000;38.612;2022-11-15T07:24:38;3.99;80.04
65040;HTU21D;51606;45.000;38.612;2022-11-15T07:27:24;4.10;80.00
65040;HTU21D;51606;45.000;38.612;2022-11-15T07:30:08;4.09;80.06
65040;HTU21D;51606;45.000;38.612;2022-11-15T07:32:58;4.15;80.13
65040;HTU21D;51606;45.000;38.612;2022-11-15T07:35:43;4.24;80.19
65040;HTU21D;51606;45.000;38.612;2022-11-15T07:38:31;4.31;80.33
65040;HTU21D;51606;45.000;38.612;2022-11-15T07:41:16;4.41;80.39
65040;HTU21D;51606;45.000;38.612;2022-11-15T07:44:01;4.56;80.33
65040;HTU21D;51606;45.000;38.612;2022-11-15T07:46:46;4.64;80.27
65040;HTU21D;51606;45.000;38.612;2022-11-15T07:49:31;4.75;80.27
65040;HTU21D;51606;45.000;38.612;2022-11-15T07:52:16;4.78;80.30
65040;HTU21D;51606;45.000;38.612;2022-11-15T07:55:01;4.88;80.41
65040;HTU21D;51606;45.000;38.612;2022-11-15T07:57:47;4.98;80.60
65040;HTU21D;51606;45.000;38.612;2022-11-15T08:00:33;4.98;80.78
65040;HTU21D;51606;45.000;38.612;2022-11-15T08:03:18;5.01;81.08
65040;HTU21D;51606;45.000;38.612;2022-11-15T08:06:03;5.10;81.15
65040;HTU21D;51606;45.000;38.612;2022-11-15T08:08:48;5.16;81.23
65040;HTU21D;51606;45.000;38.612;2022-11-15T08:11:33;5.34;81.17
65040;HTU21D;51606;45.000;38.612;2022-11-15T08:14:18;5.47;81.10
65040;HTU21D;51606;45.000;38.612;2022-11-15T08:17:03;5.65;80.98
65040;HTU21D;51606;45.000;38.612;2022-11-15T08:19:48;5.75;80.95
65040;HTU21D;51606;45.000;38.612;2022-11-15T08:22:33;6.08;81.06
65040;HTU21D;51606;45.000;38.612;2022-11-15T08:25:19;6.21;80.91
65040;HTU21D;51606;45.000;38.612;2022-11-15T08:28:05;6.26;81.20
65040;HTU21D;51606;45.000;38.612;2022-11-15T08:30:50;6.53;81.52
65040;HTU21D;51606;45.000;38.612;2022-11-15T08:33:35;7.11;81.28
65040;HTU21D;51606;45.000;38.612;2022-11-15T08:36:20;7.70;80.95
65040;HTU21D;51606;45.000;38.612;2022-11-15T08:39:05;8.26;80.82
65040;HTU21D;51606;45.000;38.612;2022-11-15T08:41:50;8.47;81.00
65040;HTU21D;51606;45.000;38.612;2022-11-15T08:44:35;9.10;81.78
65040;HTU21D;51606;45.000;38.612;2022-11-15T08:47:20;9.92;81.80
65040;HTU21D;51606;45.000;38.612;2022-11-15T08:50:06;10.44;82.22
65040;HTU21D;51606;45.000;38.612;2022-11-15T08:52:51;10.85;82.64
65040;HTU21D;51606;45.000;38.612;2022-11-15T08:55:37;11.18;83.13
65040;HTU21D;51606;45.000;38.612;2022-11-15T08:58:22;11.53;83.76
65040;HTU21D;51606;45.000;38.612;2022-11-15T09:01:13;11.79;83.97
65040;HTU21D;51606;45.000;38.612;2022-11-15T09:03:59;11.91;84.40
65040;HTU21D;51606;45.000;38.612;2022-11-15T09:06:44;12.10;84.68
65040;HTU21D;51606;45.000;38.612;2022-11-15T09:09:28;12.29;84.09
65040;HTU21D;51606;45.000;38.612;2022-11-15T09:12:13;12.61;84.76
65040;HTU21D;51606;45.000;38.612;2022-11-15T09:14:58;12.79;84.77
65040;HTU21D;51606;45.000;38.612;2022-11-15T09:17:43;13.06;84.68
65040;HTU21D;51606;45.000;38.612;2022-11-15T09:20:28;13.08;84.60
65040;HTU21D;51606;45.000;38.612;2022-11-15T09:23:12;12.94;84.25
65040;HTU21D;51606;45.000;38.612;2022-11-15T09:26:02;12.63;83.94
65040;HTU21D;51606;45.000;38.612;2022-11-15T09:28:47;12.45;84.10
65040;HTU21D;51606;45.000;38.612;2022-11-15T09:31:33;12.37;84.16
65040;HTU21D;51606;45.000;38.612;2022-11-15T09:34:17;12.41;83.74
65040;HTU21D;51606;45.000;38.612;2022-11-15T09:37:02;12.35;83.54
65040;HTU21D;51606;45.000;38.612;2022-11-15T09:39:47;12.35;82.95
65040;HTU21D;51606;45.000;38.612;2022-11-15T09:42:39;12.32;82.76
65040;HTU21D;51606;45.000;38.612;2022-11-15T09:48:49;11.89;79.83
65040;HTU21D;51606;45.000;38.612;2022-11-15T09:51:43;11.41;79.05
65040;HTU21D;51606;45.000;38.612;2022-11-15T09:54:20;10.90;78.56
65040;HTU21D;51606;45.000;38.612;2022-11-15T09:56:48;10.63;78.22
65040;HTU21D;51606;45.000;38.612;2022-11-15T10:02:33;10.09;76.86
65040;HTU21D;51606;45.000;38.612;2022-11-15T10:05:03;9.93;76.72
65040;HTU21D;51606;45.000;38.612;2022-11-15T10:10:15;9.62;75.38
65040;HTU21D;51606;45.000;38.612;2022-11-15T10:12:47;9.44;75.15
65040;HTU21D;51606;45.000;38.612;2022-11-15T10:15:16;9.37;74.83
65040;HTU21D;51606;45.000;38.612;2022-11-15T10:20:29;9.29;74.09
65040;HTU21D;51606;45.000;38.612;2022-11-15T10:23:06;9.20;73.97
65040;HTU21D;51606;45.000;38.612;2022-11-15T10:25:34;9.12;73.89
65040;HTU21D;51606;45.000;38.612;2022-11-15T10:30:38;9.04;73.38
65040;HTU21D;51606;45.000;38.612;2022-11-15T10:33:40;9.04;72.83
65040;HTU21D;51606;45.000;38.612;2022-11-15T10:47:33;8.68;72.31
65040;HTU21D;51606;45.000;38.612;2022-11-15T10:50:29;8.68;72.44
65040;HTU21D;51606;45.000;38.612;2022-11-15T10:52:56;8.67;72.22
65040;HTU21D;51606;45.000;38.612;2022-11-15T10:55:29;8.66;72.45
65040;HTU21D;51606;45.000;38.612;2022-11-15T11:00:47;8.71;72.25
65040;HTU21D;51606;45.000;38.612;2022-11-15T11:03:34;8.70;72.16
65040;HTU21D;51606;45.000;38.612;2022-11-15T11:06:06;8.65;72.11
65040;HTU21D;51606;45.000;38.612;2022-11-15T11:08:33;8.63;72.00
65040;HTU21D;51606;45.000;38.612;2022-11-15T11:11:02;8.58;72.00
65040;HTU21D;51606;45.000;38.612;2022-11-15T11:13:37;8.58;71.99
65040;HTU21D;51606;45.000;38.612;2022-11-15T11:18:45;8.52;71.96
65040;HTU21D;51606;45.000;38.612;2022-11-15T11:21:22;8.50;71.92
65040;HTU21D;51606;45.000;38.612;2022-11-15T11:23:57;8.46;71.90
65040;HTU21D;51606;45.000;38.612;2022-11-15T11:29:41;8.42;71.71
65040;HTU21D;51606;45.000;38.612;2022-11-15T11:37:46;8.28;71.58
65040;HTU21D;51606;45.000;38.612;2022-11-15T11:50:50;8.08;71.19
65040;HTU21D;51606;45.000;38.612;2022-11-15T11:53:28;8.06;71.38
65040;HTU21D;51606;45.000;38.612;2022-11-15T11:56:02;8.07;71.33
65040;HTU21D;51606;45.000;38.612;2022-11-15T11:58:38;8.05;71.17
65040;HTU21D;51606;45.000;38.612;2022-11-15T12:01:41;8.03;71.35
65040;HTU21D;51606;45.000;38.612;2022-11-15T12:06:42;7.99;71.46
65040;HTU21D;51606;45.000;38.612;2022-11-15T12:09:38;7.97;71.36
65040;HTU21D;51606;45.000;38.612;2022-11-15T12:15:10;7.90;71.41
65040;HTU21D;51606;45.000;38.612;2022-11-15T12:17:40;7.88;71.38
65040;HTU21D;51606;45.000;38.612;2022-11-15T12:20:16;7.85;71.29
65040;HTU21D;51606;45.000;38.612;2022-11-15T12:23:00;7.83;71.32
65040;HTU21D;51606;45.000;38.612;2022-11-15T12:25:35;7.78;71.41
65040;HTU21D;51606;45.000;38.612;2022-11-15T12:31:21;7.71;71.52
65040;HTU21D;51606;45.000;38.612;2022-11-15T12:33:49;7.67;71.51
65040;HTU21D;51606;45.000;38.612;2022-11-15T12:38:54;7.59;71.60
65040;HTU21D;51606;45.000;38.612;2022-11-15T12:41:32;7.54;71.67
65040;HTU21D;51606;45.000;38.612;2022-11-15T12:43:59;7.49;71.70
65040;HTU21D;51606;45.000;38.612;2022-11-15T13:02:44;7.14;71.85
65040;HTU21D;51606;45.000;38.612;2022-11-15T13:13:01;6.89;72.06
65040;HTU21D;51606;45.000;38.612;2022-11-15T13:15:55;6.81;72.10
65040;HTU21D;51606;45.000;38.612;2022-11-15T13:18:37;6.74;72.08
65040;HTU21D;51606;45.000;38.612;2022-11-15T13:21:18;6.69;72.16
65040;HTU21D;51606;45.000;38.612;2022-11-15T13:24:04;6.58;72.27
65040;HTU21D;51606;45.000;38.612;2022-11-15T13:26:38;6.50;72.38
65040;HTU21D;51606;45.000;38.612;2022-11-15T13:29:15;6.42;72.48
65040;HTU21D;51606;45.000;38.612;2022-11-15T13:31:43;6.34;72.59
65040;HTU21D;51606;45.000;38.612;2022-11-15T13:34:33;6.22;72.77
65040;HTU21D;51606;45.000;38.612;2022-11-15T13:37:00;6.11;72.92
65040;HTU21D;51606;45.000;38.612;2022-11-15T13:39:30;6.06;72.93
65040;HTU21D;51606;45.000;38.612;2022-11-15T13:41:58;5.97;73.00
65040;HTU21D;51606;45.000;38.612;2022-11-15T13:44:32;5.85;73.12
65040;HTU21D;51606;45.000;38.612;2022-11-15T13:47:04;5.71;73.32
65040;HTU21D;51606;45.000;38.612;2022-11-15T13:49:32;5.57;73.49
65040;HTU21D;51606;45.000;38.612;2022-11-15T13:52:01;5.45;73.65
65040;HTU21D;51606;45.000;38.612;2022-11-15T13:54:51;5.31;73.77
65040;HTU21D;51606;45.000;38.612;2022-11-15T13:57:27;5.18;73.95
65040;HTU21D;51606;45.000;38.612;2022-11-15T14:00:00;5.07;74.02
65040;HTU21D;51606;45.000;38.612;2022-11-15T14:02:37;4.96;74.10
65040;HTU21D;51606;45.000;38.612;2022-11-15T14:05:19;4.84;74.19
65040;HTU21D;51606;45.000;38.612;2022-11-15T14:10:32;4.64;74.35
65040;HTU21D;51606;45.000;38.612;2022-11-15T14:12:59;4.54;74.45
65040;HTU21D;51606;45.000;38.612;2022-11-15T14:15:34;4.48;74.49
65040;HTU21D;51606;45.000;38.612;2022-11-15T14:18:02;4.41;74.50
65040;HTU21D;51606;45.000;38.612;2022-11-15T14:20:33;4.30;74.56
65040;HTU21D;51606;45.000;38.612;2022-11-15T14:23:23;4.22;74.64
65040;HTU21D;51606;45.000;38.612;2022-11-15T14:25:55;4.13;74.72
65040;HTU21D;51606;45.000;38.612;2022-11-15T14:30:54;4.00;74.81
65040;HTU21D;51606;45.000;38.612;2022-11-15T14:33:35;3.92;74.83
65040;HTU21D;51606;45.000;38.612;2022-11-15T14:38:33;3.70;75.09
65040;HTU21D;51606;45.000;38.612;2022-11-15T14:41:00;3.59;75.23
65040;HTU21D;51606;45.000;38.612;2022-11-15T14:43:26;3.56;75.25
65040;HTU21D;51606;45.000;38.612;2022-11-15T14:45:53;3.52;75.23
65040;HTU21D;51606;45.000;38.612;2022-11-15T14:48:19;3.46;75.34
65040;HTU21D;51606;45.000;38.612;2022-11-15T14:50:46;3.43;75.32
65040;HTU21D;51606;45.000;38.612;2022-11-15T14:53:14;3.34;75.30
65040;HTU21D;51606;45.000;38.612;2022-11-15T14:55:41;3.24;75.45
65040;HTU21D;51606;45.000;38.612;2022-11-15T14:58:09;3.13;75.59
65040;HTU21D;51606;45.000;38.612;2022-11-15T15:00:40;3.13;75.67
65040;HTU21D;51606;45.000;38.612;2022-11-15T15:03:07;3.09;75.62
65040;HTU21D;51606;45.000;38.612;2022-11-15T15:05:39;3.04;75.67
65040;HTU21D;51606;45.000;38.612;2022-11-15T15:08:06;3.00;75.68
65040;HTU21D;51606;45.000;38.612;2022-11-15T15:10:38;2.93;75.74
65040;HTU21D;51606;45.000;38.612;2022-11-15T15:13:08;2.87;75.86
65040;HTU21D;51606;45.000;38.612;2022-11-15T15:15:37;2.85;75.91
65040;HTU21D;51606;45.000;38.612;2022-11-15T15:18:04;2.82;75.81
65040;HTU21D;51606;45.000;38.612;2022-11-15T15:20:32;2.75;75.87
65040;HTU21D;51606;45.000;38.612;2022-11-15T15:22:58;2.71;75.98
65040;HTU21D;51606;45.000;38.612;2022-11-15T15:25:31;2.70;75.99
65040;HTU21D;51606;45.000;38.612;2022-11-15T15:27:59;2.65;75.95
65040;HTU21D;51606;45.000;38.612;2022-11-15T15:30:28;2.57;76.01
65040;HTU21D;51606;45.000;38.612;2022-11-15T15:32:55;2.43;76.13
65040;HTU21D;51606;45.000;38.612;2022-11-15T15:35:22;2.31;76.34
65040;HTU21D;51606;45.000;38.612;2022-11-15T15:37:49;2.28;76.48
65040;HTU21D;51606;45.000;38.612;2022-11-15T15:40:19;2.29;76.53
65040;HTU21D;51606;45.000;38.612;2022-11-15T15:42:49;2.31;76.38
65040;HTU21D;51606;45.000;38.612;2022-11-15T15:45:17;2.26;76.30
65040;HTU21D;51606;45.000;38.612;2022-11-15T15:47:44;2.20;76.41
65040;HTU21D;51606;45.000;38.612;2022-11-15T15:50:26;2.19;76.51
65040;HTU21D;51606;45.000;38.612;2022-11-15T15:52:55;2.20;76.41
65040;HTU21D;51606;45.000;38.612;2022-11-15T15:55:22;2.14;76.36
65040;HTU21D;51606;45.000;38.612;2022-11-15T15:57:49;2.06;76.48
65040;HTU21D;51606;45.000;38.612;2022-11-15T16:00:17;1.97;76.65
65040;HTU21D;51606;45.000;38.612;2022-11-15T16:02:43;1.92;76.76
65040;HTU21D;51606;45.000;38.612;2022-11-15T16:05:10;1.90;76.76
65040;HTU21D;51606;45.000;38.612;2022-11-15T16:07:38;1.87;76.80
65040;HTU21D;51606;45.000;38.612;2022-11-15T16:10:24;1.84;76.76
65040;HTU21D;51606;45.000;38.612;2022-11-15T16:12:55;1.79;76.83
65040;HTU21D;51606;45.000;38.612;2022-11-15T16:15:23;1.76;76.87
65040;HTU21D;51606;45.000;38.612;2022-11-15T16:18:00;1.76;76.87
65040;HTU21D;51606;45.000;38.612;2022-11-15T16:23:03;1.71;76.90
65040;HTU21D;51606;45.000;38.612;2022-11-15T16:25:38;1.70;76.90
65040;HTU21D;51606;45.000;38.612;2022-11-15T16:28:16;1.68;76.92
65040;HTU21D;51606;45.000;38.612;2022-11-15T16:30:43;1.64;76.95
65040;HTU21D;51606;45.000;38.612;2022-11-15T16:33:09;1.64;77.05
65040;HTU21D;51606;45.000;38.612;2022-11-15T16:35:36;1.64;76.98
65040;HTU21D;51606;45.000;38.612;2022-11-15T16:38:02;1.62;76.99
65040;HTU21D;51606;45.000;38.612;2022-11-15T16:40:30;1.55;77.08
65040;HTU21D;51606;45.000;38.612;2022-11-15T16:42:58;1.53;77.18
65040;HTU21D;51606;45.000;38.612;2022-11-15T16:56:47;1.43;77.24
65040;HTU21D;51606;45.000;38.612;2022-11-15T16:59:16;1.46;77.21
65040;HTU21D;51606;45.000;38.612;2022-11-15T17:01:43;1.46;77.25
65040;HTU21D;51606;45.000;38.612;2022-11-15T17:04:17;0.00;77.50
65040;HTU21D;51606;45.000;38.612;2022-11-15T17:06:45;1.58;77.31
65040;HTU21D;51606;45.000;38.612;2022-11-15T17:09:20;1.60;77.21
65040;HTU21D;51606;45.000;38.612;2022-11-15T17:11:49;1.62;77.26
65040;HTU21D;51606;45.000;38.612;2022-11-15T17:14:16;1.64;77.31
65040;HTU21D;51606;45.000;38.612;2022-11-15T17:16:43;1.62;77.28
